Latest Weather Observations for Swan Hill

IDN60801

Issued at 10:32 pm EST Monday 2 May 2016 (issued every 30 minutes, with the page automatically refreshed every 10 minutes)

About weather observations | Map of weather stations | Latest weather observations for NSW | Other Formats
Station Details ID: 077094 Name: SWAN HILL AERODROME Lat: -35.38 Lon: 143.54 Height: 71.0 m
Data from the previous 72 hours. | See also: Recent months at Swan Hill
Date/Time
EST
Temp
°C
App
Temp
°C
Dew
Point
Rel
Hum
%
Delta-T
°C
Wind Press
QNH
hPa
Press
MSL
hPa
Rain
since 9 am
mm
Dir
 
Spd
km/h
Gust
km/h
Spd
kts
Gust
kts
02/10:30pm 12.7 8.4 5.1 60 3.5 N 17 20 9 11 1011.8 1011.8 0.0
02/10:00pm 12.7 8.4 5.1 60 3.5 N 17 20 9 11 1012.0 1012.0 0.0
02/09:30pm 12.9 8.6 5.1 59 3.6 N 17 20 9 11 1011.9 1011.9 0.0
02/09:00pm 13.1 8.8 5.3 59 3.6 N 17 20 9 11 1012.0 1012.0 0.0
02/08:30pm 13.2 8.9 5.4 59 3.7 N 17 19 9 10 1012.2 1012.2 0.0
02/08:00pm 12.8 8.9 5.5 61 3.4 N 15 17 8 9 1012.6 1012.6 0.0
02/07:30pm 13.7 9.8 5.3 57 3.9 N 15 17 8 9 1012.3 1012.3 0.0
02/07:00pm 14.2 10.3 5.3 55 4.2 N 15 19 8 10 1012.2 1012.2 0.0
02/06:30pm 13.9 10.4 5.5 57 4.0 N 13 17 7 9 1012.3 1012.3 0.0
02/06:00pm 14.1 10.6 5.5 56 4.1 N 13 17 7 9 1012.0 1012.0 0.0
02/05:30pm 16.4 12.0 4.8 46 5.5 NNW 17 22 9 12 1011.9 1011.9 0.0
02/05:00pm 18.1 12.1 3.2 37 6.9 NW 24 28 13 15 1012.1 1012.1 0.0
02/04:30pm 18.1 12.6 3.9 39 6.7 NW 22 28 12 15 1012.2 1012.2 0.0
02/04:00pm 18.5 12.2 3.9 38 6.9 NNW 26 33 14 18 1012.2 1012.2 0.0
02/03:30pm 18.6 12.0 4.4 39 6.8 NW 28 35 15 19 1012.3 1012.3 0.0
02/03:00pm 19.0 12.5 4.7 39 6.9 NNW 28 35 15 19 1012.7 1012.7 0.0
02/02:30pm 17.9 11.8 3.0 37 6.9 NW 24 32 13 17 1012.9 1012.9 0.0
02/02:00pm 18.2 11.6 4.4 40 6.6 NNW 28 39 15 21 1013.0 1013.0 0.0
02/01:30pm 18.0 10.6 3.9 39 6.7 NW 32 46 17 25 1013.4 1013.4 0.0
02/01:00pm 17.8 10.7 3.7 39 6.6 NNW 30 37 16 20 1013.6 1013.6 0.0
02/12:30pm 17.6 11.2 5.2 44 6.0 N 28 35 15 19 1013.8 1013.8 0.0
02/12:00pm 17.2 11.8 6.4 49 5.3 NNW 24 33 13 18 1014.6 1014.6 0.0
02/11:30am 16.0 10.8 7.2 56 4.4 NNW 24 28 13 15 1015.1 1015.2 0.0
02/11:00am 15.3 10.6 7.6 60 3.8 NNW 22 28 12 15 1015.6 1015.7 0.0
02/10:30am 14.8 9.7 7.6 62 3.6 NNW 24 30 13 16 1015.6 1015.7 0.0
02/10:00am 13.8 9.5 7.8 67 3.0 NNW 20 28 11 15 1015.7 1015.8 0.0
02/09:30am 13.2 9.0 7.6 69 2.8 N 19 22 10 12 1015.8 1015.9 0.0
02/09:00am 12.6 8.4 7.3 70 2.6 N 19 26 10 14 1016.0 1016.1 0.0
02/08:30am 12.2 8.3 6.9 70 2.5 N 17 22 9 12 1015.8 1015.9 0.0
02/08:00am 11.7 8.9 6.8 72 2.3 N 11 15 6 8 1015.6 1015.7 0.0
02/07:30am 11.2 8.0 6.7 74 2.1 N 13 19 7 10 1015.4 1015.5 0.0
02/07:00am 10.9 8.1 7.0 77 1.9 N 11 15 6 8 1015.4 1015.5 0.0
02/06:30am 11.1 7.9 6.8 75 2.0 N 13 17 7 9 1015.6 1015.7 0.0
02/06:00am 10.7 8.4 7.4 80 1.6 NNE 9 13 5 7 1015.7 1015.8 0.0
02/05:30am 10.3 8.3 7.2 81 1.5 NNE 7 9 4 5 1015.6 1015.7 0.0
02/05:00am 10.4 8.0 6.9 79 1.7 NNE 9 11 5 6 1015.8 1015.9 0.0
02/04:30am 9.9 7.9 7.2 83 1.3 WSW 7 9 4 5 1015.9 1016.0 0.0
02/04:00am 9.6 7.3 7.5 87 1.0 SW 9 13 5 7 1015.9 1016.0 0.0
02/03:30am 8.3 7.2 6.9 91 0.7 SW 2 7 1 4 1016.0 1016.1 0.0
02/03:00am 7.7 5.5 6.2 90 0.7 SW 7 11 4 6 1016.1 1016.2 0.0
02/02:30am 7.9 7.0 6.2 89 0.8 CALM 0 0 0 0 1016.3 1016.4 0.0
02/02:00am 8.2 6.6 6.5 89 0.8 SW 4 9 2 5 1016.7 1016.8 0.0
02/01:30am 8.3 6.1 6.4 88 0.9 SW 7 9 4 5 1017.0 1017.1 0.0
02/01:00am 8.3 6.2 6.6 89 0.8 SW 7 9 4 5 1017.1 1017.2 0.0
02/12:30am 8.3 5.8 6.4 88 0.9 SW 9 11 5 6 1017.4 1017.5 0.0
02/12:00am 8.7 6.8 6.7 87 0.9 SW 6 7 3 4 1017.7 1017.8 0.0
 
Date/Time
EST
Temp
°C
App
Temp
°C
Dew
Point
Rel
Hum
%
Delta-T
°C
Wind Press
QNH
hPa
Press
MSL
hPa
Rain
since 9 am
mm
Dir
 
Spd
km/h
Gust
km/h
Spd
kts
Gust
kts
01/11:30pm 9.0 7.0 7.0 87 0.9 SW 7 7 4 4 1017.9 1018.0 0.0
01/11:00pm 8.5 6.0 6.5 87 0.9 SW 9 11 5 6 1018.3 1018.3 0.0
01/10:30pm 8.6 6.1 6.7 88 0.9 SW 9 11 5 6 1018.2 1018.2 0.0
01/10:00pm 8.8 6.7 6.8 87 0.9 SW 7 9 4 5 1018.5 1018.5 0.0
01/09:30pm 9.0 6.9 6.6 85 1.1 SW 7 7 4 4 1018.0 1018.1 0.0
01/09:00pm 10.1 9.4 6.8 80 1.6 CALM 0 0 0 0 1017.9 1018.0 0.0
01/08:30pm 10.4 9.6 6.7 78 1.7 CALM 0 0 0 0 1017.6 1017.7 0.0
01/08:00pm 11.8 10.0 7.1 73 2.3 SW 6 7 3 4 1017.4 1017.5 0.0
01/07:30pm 12.5 10.4 6.8 68 2.7 SW 7 9 4 5 1017.3 1017.4 0.0
01/07:00pm 13.0 10.6 6.8 66 3.0 SW 9 11 5 6 1016.9 1017.0 0.0
01/06:30pm 13.2 10.5 7.4 68 2.8 SW 11 13 6 7 1016.6 1016.7 0.0
01/06:00pm 14.4 11.1 6.5 59 3.8 SW 13 17 7 9 1016.4 1016.5 0.0
01/05:30pm 15.6 11.7 5.5 51 4.8 SW 15 20 8 11 1015.9 1016.0 0.0
01/05:00pm 16.4 11.6 5.7 49 5.2 WSW 20 28 11 15 1015.6 1015.7 0.0
01/04:30pm 16.6 11.1 5.9 49 5.2 SW 24 35 13 19 1015.4 1015.5 0.0
01/04:00pm 17.3 10.6 5.6 46 5.7 W 30 39 16 21 1015.3 1015.4 0.0
01/03:30pm 16.9 10.2 5.8 48 5.4 WSW 30 39 16 21 1015.0 1015.1 0.0
01/03:06pm 16.3 9.5 6.7 53 4.7 W 32 48 17 26 1014.9 1014.9 0.0
01/03:00pm 17.1 9.0 5.4 46 5.6 W 37 48 20 26 1014.7 1014.7 0.0
01/02:30pm 16.8 9.4 6.6 51 5.0 WSW 35 44 19 24 1014.4 1014.4 0.0
01/02:01pm 17.1 9.5 6.0 48 5.4 WSW 35 56 19 30 1014.1 1014.1 0.0
01/02:00pm 17.1 9.5 6.0 48 5.4 WSW 35 48 19 26 1014.1 1014.1 0.0
01/01:49pm 16.6 9.9 8.1 57 4.3 WSW 33 52 18 28 1014.2 1014.2 0.0
01/01:30pm 16.4 8.2 6.5 52 4.9 WSW 39 50 21 27 1014.2 1014.2 0.0
01/01:00pm 16.1 7.8 6.3 52 4.8 WSW 39 46 21 25 1014.1 1014.1 0.0
01/12:30pm 17.2 9.1 7.0 51 5.1 W 39 54 21 29 1014.2 1014.2 0.0
01/12:00pm 16.8 8.9 7.7 55 4.6 W 39 48 21 26 1014.3 1014.3 0.0
01/11:30am 16.6 8.3 7.8 56 4.4 W 41 52 22 28 1014.3 1014.3 0.0
01/11:00am 16.3 7.8 8.5 60 4.0 W 43 57 23 31 1014.4 1014.4 0.0
01/10:38am 15.8 6.9 7.8 59 4.0 W 44 63 24 34 1014.3 1014.3 0.0
01/10:30am 15.8 6.2 8.1 60 3.9 W 48 61 26 33 1014.2 1014.2 0.0
01/10:00am 15.1 5.9 7.9 62 3.6 W 46 59 25 32 1013.9 1013.9 0.0
01/09:30am 15.0 6.9 8.5 65 3.3 WNW 41 56 22 30 1013.6 1013.5 0.0
01/09:00am 14.6 6.9 8.8 68 3.0 WNW 39 48 21 26 1013.6 1013.5 7.4
01/08:30am 14.2 7.8 9.2 72 2.6 WNW 33 46 18 25 1013.0 1012.9 7.4
01/08:00am 13.8 8.0 9.6 76 2.2 WNW 30 41 16 22 1012.5 1012.4 7.4
01/07:30am 13.5 8.2 9.9 79 1.9 WNW 28 35 15 19 1012.0 1011.9 7.4
01/07:00am 13.6 8.8 10.4 81 1.7 NW 26 35 14 19 1011.4 1011.3 7.4
01/06:30am 14.1 8.6 10.5 79 1.9 WNW 30 39 16 21 1011.0 1010.9 7.4
01/06:00am 14.4 9.5 11.2 81 1.7 WNW 28 37 15 20 1010.6 1010.5 7.4
01/05:30am 14.9 10.6 13.3 90 0.9 WNW 28 35 15 19 1010.1 1010.0 7.4
01/05:00am 15.2 9.8 13.9 92 0.7 WNW 35 43 19 23 1009.6 1009.5 7.4
01/04:30am 15.5 12.4 14.5 94 0.6 NW 24 33 13 18 1008.8 1008.7 7.4
01/04:00am 15.7 13.1 14.9 95 0.5 NW 22 28 12 15 1008.6 1008.5 7.4
01/03:30am 15.2 13.4 14.4 95 0.5 NW 17 20 9 11 1008.3 1008.2 7.4
01/03:00am 15.5 13.4 14.7 95 0.5 WNW 19 24 10 13 1008.3 1008.2 7.4
01/02:30am 15.8 12.9 15.0 95 0.5 WNW 24 32 13 17 1008.5 1008.4 7.4
01/02:18am 15.6 12.2 14.8 95 0.5 WNW 26 32 14 17 1008.8 1008.7 7.4
01/02:00am 15.0 11.4 14.2 95 0.5 WNW 26 35 14 19 1008.3 1008.2 7.4
01/01:57am 14.9 10.9 14.1 95 0.5 WNW 28 39 15 21 1008.3 1008.2 7.4
01/01:44am 14.7 7.1 13.7 94 0.6 WNW 46 74 25 40 1008.6 1008.5 7.2
01/01:40am 14.6 5.1 13.6 94 0.6 W 56 87 30 47 1008.7 1008.6 7.0
01/01:32am 14.4 4.2 13.1 92 0.7 W 59 83 32 45 1007.0 1006.9 5.4
01/01:30am 14.5 5.1 12.7 89 1.0 WNW 54 78 29 42 1007.7 1007.6 3.4
01/01:28am 15.3 7.0 12.6 84 1.5 NW 48 78 26 42 1008.0 1007.9 1.4
01/01:25am 17.1 10.1 12.4 74 2.6 NNW 41 78 22 42 1008.8 1008.7 0.0
01/01:24am 18.2 12.0 12.6 70 3.1 NNW 37 78 20 42 1008.4 1008.3 0.0
01/01:23am 19.5 14.9 16.0 80 2.1 N 35 57 19 31 1008.6 1008.5 0.0
01/01:00am 19.7 15.1 15.1 75 2.7 N 33 46 18 25 1006.1 1006.0 0.0
01/12:30am 19.3 15.4 14.3 73 2.9 N 28 41 15 22 1006.8 1006.7 0.0
01/12:00am 19.3 15.5 14.8 75 2.6 N 28 37 15 20 1007.2 1007.1 0.0
 
Date/Time
EST
Temp
°C
App
Temp
°C
Dew
Point
Rel
Hum
%
Delta-T
°C
Wind Press
QNH
hPa
Press
MSL
hPa
Rain
since 9 am
mm
Dir
 
Spd
km/h
Gust
km/h
Spd
kts
Gust
kts
30/11:30pm 19.1 15.7 15.8 81 2.0 N 28 39 15 21 1007.9 1007.8 0.0
30/11:00pm 19.3 17.0 15.8 80 2.1 N 22 32 12 17 1008.3 1008.2 0.0
30/10:30pm 19.5 16.8 15.6 78 2.3 N 24 30 13 16 1009.3 1009.2 0.0
30/10:00pm 19.7 17.2 15.1 75 2.7 N 22 33 12 18 1009.6 1009.5 0.0
30/09:30pm 19.7 17.3 14.5 72 3.0 NNE 20 30 11 16 1010.1 1010.0 0.0
30/09:00pm 19.8 16.7 13.3 66 3.7 NNE 22 28 12 15 1010.1 1010.0 0.0
30/08:30pm 20.7 18.0 12.9 61 4.4 NNE 19 24 10 13 1010.6 1010.5 0.0
30/08:00pm 20.7 18.0 12.9 61 4.4 N 19 26 10 14 1011.1 1011.0 0.0
30/07:30pm 21.1 18.3 13.3 61 4.5 N 20 28 11 15 1011.1 1011.0 0.0
30/07:00pm 21.4 18.6 13.3 60 4.7 N 20 28 11 15 1010.9 1010.8 0.0
30/06:30pm 21.5 19.4 13.7 61 4.5 N 17 20 9 11 1010.9 1010.8 0.0
30/06:00pm 22.3 19.7 13.1 56 5.3 NNE 19 24 10 13 1010.7 1010.6 0.0
30/05:30pm 22.8 19.6 13.0 54 5.6 N 22 30 12 16 1010.8 1010.7 0.0
30/05:00pm 23.9 20.2 12.8 49 6.4 N 24 32 13 17 1010.8 1010.7 0.0
30/04:30pm 24.1 21.0 13.3 51 6.3 N 22 32 12 17 1010.9 1010.8 0.0
30/04:00pm 24.1 21.2 13.0 50 6.4 N 20 26 11 14 1011.1 1011.0 0.0
30/03:30pm 24.9 21.3 13.1 48 6.9 N 24 33 13 18 1011.3 1011.2 0.0
30/03:00pm 24.7 22.1 13.3 49 6.7 N 19 24 10 13 1011.5 1011.4 0.0
30/02:30pm 23.9 22.1 15.4 59 5.1 N 19 33 10 18 1011.9 1011.8 0.0
30/02:00pm 23.7 21.7 15.5 60 4.9 NNW 20 26 11 14 1012.4 1012.3 0.0
30/01:30pm 23.2 21.2 15.5 62 4.6 N 20 26 11 14 1012.7 1012.6 0.0
30/01:00pm 22.6 21.3 15.7 65 4.2 N 17 24 9 13 1013.2 1013.1 0.0
30/12:30pm 22.6 21.8 16.2 67 3.9 N 15 22 8 12 1013.7 1013.6 0.0
30/12:00pm 22.1 20.8 15.9 68 3.7 NNW 17 24 9 13 1014.3 1014.2 0.0
30/11:30am 22.0 21.5 15.8 68 3.7 NNW 13 20 7 11 1014.7 1014.6 0.0
30/11:00am 21.2 19.4 15.5 70 3.4 N 19 26 10 14 1015.1 1015.0 0.0
30/10:30am 20.4 19.5 15.8 75 2.8 NNW 15 20 8 11 1015.2 1015.1 0.0
30/10:00am 20.1 18.9 16.1 78 2.4 NNW 17 22 9 12 1015.3 1015.2 0.0
30/09:33am 19.1 18.3 16.0 82 1.8 N 15 20 8 11 1015.5 1015.4 0.0
30/09:30am 18.7 17.8 15.8 83 1.7 N 15 20 8 11 1015.5 1015.4 0.0
30/09:00am 18.1 16.4 15.7 86 1.4 N 19 24 10 13 1015.9 1015.8 9.0
30/08:30am 17.9 16.6 15.9 88 1.2 N 17 22 9 12 1015.8 1015.7 9.0
30/08:00am 17.5 16.9 15.7 89 1.1 NNE 13 19 7 10 1015.6 1015.5 9.0
30/07:30am 17.1 15.7 15.6 91 0.9 N 17 20 9 11 1015.4 1015.3 9.0
30/07:00am 17.0 16.0 15.7 92 0.8 N 15 19 8 10 1015.2 1015.1 9.0
30/06:30am 17.0 16.0 15.7 92 0.8 N 15 22 8 12 1014.9 1014.8 9.0
30/06:00am 17.0 16.0 15.7 92 0.8 N 15 19 8 10 1014.7 1014.6 9.0
30/05:30am 17.0 15.7 15.7 92 0.8 N 17 22 9 12 1014.5 1014.4 9.0
30/05:00am 17.0 16.8 15.7 92 0.8 NNE 11 17 6 9 1014.1 1014.0 9.0
30/04:30am 17.1 16.9 15.8 92 0.8 N 11 15 6 8 1014.1 1014.0 9.0
30/04:00am 17.0 16.1 15.9 93 0.6 N 15 20 8 11 1014.0 1013.9 9.0
30/03:30am 17.1 17.0 16.1 94 0.6 NNE 11 17 6 9 1014.0 1013.9 9.0
30/03:00am 16.7 16.9 15.7 94 0.6 NNE 9 13 5 7 1014.1 1014.0 9.0
30/02:41am 16.2 16.5 15.1 93 0.6 NE 7 11 4 6 1014.2 1014.1 9.0
30/02:30am 16.0 15.9 14.9 93 0.6 NNE 9 11 5 6 1014.2 1014.1 9.0
30/02:00am 16.3 16.2 15.0 92 0.8 NNE 9 11 5 6 1014.3 1014.2 9.0
30/01:40am 16.7 16.7 15.2 91 0.9 NE 9 11 5 6 1014.3 1014.2 9.0
30/01:30am 16.9 17.0 15.4 91 0.9 NE 9 11 5 6 1014.3 1014.2 9.0
30/01:00am 17.5 17.0 15.8 90 1.0 NNE 13 17 7 9 1014.5 1014.4 9.0
30/12:30am 17.6 17.5 15.9 90 1.0 NNE 11 17 6 9 1014.8 1014.7 9.0
30/12:00am 17.5 17.0 15.8 90 1.0 N 13 17 7 9 1015.1 1015.0 9.0
 
Date/Time
EST
Temp
°C
App
Temp
°C
Dew
Point
Rel
Hum
%
Delta-T
°C
Wind Press
QNH
hPa
Press
MSL
hPa
Rain
since 9 am
mm
Dir
 
Spd
km/h
Gust
km/h
Spd
kts
Gust
kts
29/11:30pm 17.8 16.6 16.0 89 1.1 N 17 24 9 13 1015.2 1015.1 9.0
29/11:00pm 17.8 16.6 16.1 90 1.0 N 17 22 9 12 1015.5 1015.4 9.0

Other Formats:

Comma delimited format used in spreadsheet applications
http://www.bom.gov.au/fwo/IDN60801/IDN60801.94843.axf

JavaScript Object Notation format (JSON) in row-major order
http://www.bom.gov.au/fwo/IDN60801/IDN60801.94843.json